sensor_id;sensor_type;location;lat;lon;timestamp;temperature;humidity
48328;DHT22;34136;51.022;7.082;2023-01-15T00:02:13;8.50;7.80
48328;DHT22;34136;51.022;7.082;2023-01-15T00:04:58;8.40;8.60
48328;DHT22;34136;51.022;7.082;2023-01-15T00:07:45;8.40;8.40
48328;DHT22;34136;51.022;7.082;2023-01-15T00:10:31;8.30;8.10
48328;DHT22;34136;51.022;7.082;2023-01-15T00:13:17;8.20;8.40
48328;DHT22;34136;51.022;7.082;2023-01-15T00:16:09;8.20;7.60
48328;DHT22;34136;51.022;7.082;2023-01-15T00:18:58;8.10;7.40
48328;DHT22;34136;51.022;7.082;2023-01-15T00:21:44;8.10;8.10
48328;DHT22;34136;51.022;7.082;2023-01-15T00:24:30;8.00;6.20
48328;DHT22;34136;51.022;7.082;2023-01-15T00:27:17;7.90;7.70
48328;DHT22;34136;51.022;7.082;2023-01-15T00:30:09;7.80;7.70
48328;DHT22;34136;51.022;7.082;2023-01-15T00:32:57;7.60;6.60
48328;DHT22;34136;51.022;7.082;2023-01-15T00:35:43;7.50;7.60
48328;DHT22;34136;51.022;7.082;2023-01-15T00:38:29;7.40;7.00
48328;DHT22;34136;51.022;7.082;2023-01-15T00:41:17;7.40;8.00
48328;DHT22;34136;51.022;7.082;2023-01-15T00:44:03;7.40;8.90
48328;DHT22;34136;51.022;7.082;2023-01-15T00:46:51;7.40;9.10
48328;DHT22;34136;51.022;7.082;2023-01-15T00:49:41;7.30;8.20
48328;DHT22;34136;51.022;7.082;2023-01-15T00:52:27;7.30;9.20
48328;DHT22;34136;51.022;7.082;2023-01-15T00:55:13;7.20;10.20
48328;DHT22;34136;51.022;7.082;2023-01-15T00:57:59;7.30;10.80
48328;DHT22;34136;51.022;7.082;2023-01-15T01:00:46;7.30;10.70
48328;DHT22;34136;51.022;7.082;2023-01-15T01:03:33;7.30;11.00
48328;DHT22;34136;51.022;7.082;2023-01-15T01:06:20;7.20;10.40
48328;DHT22;34136;51.022;7.082;2023-01-15T01:09:06;7.20;9.10
48328;DHT22;34136;51.022;7.082;2023-01-15T01:11:53;7.20;9.60
48328;DHT22;34136;51.022;7.082;2023-01-15T01:14:39;7.30;10.10
48328;DHT22;34136;51.022;7.082;2023-01-15T01:17:25;7.30;9.00
48328;DHT22;34136;51.022;7.082;2023-01-15T01:20:15;7.30;8.90
48328;DHT22;34136;51.022;7.082;2023-01-15T01:23:02;7.40;8.40
48328;DHT22;34136;51.022;7.082;2023-01-15T01:25:48;7.40;8.70
48328;DHT22;34136;51.022;7.082;2023-01-15T01:28:34;7.50;8.20
48328;DHT22;34136;51.022;7.082;2023-01-15T01:31:21;7.50;7.80
48328;DHT22;34136;51.022;7.082;2023-01-15T01:34:08;7.50;7.20
48328;DHT22;34136;51.022;7.082;2023-01-15T01:36:54;7.60;7.60
48328;DHT22;34136;51.022;7.082;2023-01-15T01:39:40;7.60;6.90
48328;DHT22;34136;51.022;7.082;2023-01-15T01:42:27;7.60;7.20
48328;DHT22;34136;51.022;7.082;2023-01-15T01:45:20;7.60;7.70
48328;DHT22;34136;51.022;7.082;2023-01-15T01:48:07;7.50;8.30
48328;DHT22;34136;51.022;7.082;2023-01-15T01:50:55;7.40;7.90
48328;DHT22;34136;51.022;7.082;2023-01-15T01:53:43;7.40;8.70
48328;DHT22;34136;51.022;7.082;2023-01-15T01:56:32;7.30;6.70
48328;DHT22;34136;51.022;7.082;2023-01-15T01:59:20;7.20;6.10
48328;DHT22;34136;51.022;7.082;2023-01-15T02:02:08;7.20;7.50
48328;DHT22;34136;51.022;7.082;2023-01-15T02:04:54;7.30;6.20
48328;DHT22;34136;51.022;7.082;2023-01-15T02:07:40;7.20;2.60
48328;DHT22;34136;51.022;7.082;2023-01-15T02:10:27;7.20;3.60
48328;DHT22;34136;51.022;7.082;2023-01-15T02:13:25;7.30;4.00
48328;DHT22;34136;51.022;7.082;2023-01-15T02:28:42;7.30;3.70
48328;DHT22;34136;51.022;7.082;2023-01-15T02:31:35;7.30;2.50
48328;DHT22;34136;51.022;7.082;2023-01-15T02:34:32;7.30;1.90
48328;DHT22;34136;51.022;7.082;2023-01-15T02:37:29;7.20;2.20
48328;DHT22;34136;51.022;7.082;2023-01-15T02:40:20;7.20;2.90
48328;DHT22;34136;51.022;7.082;2023-01-15T02:43:10;7.20;2.90
48328;DHT22;34136;51.022;7.082;2023-01-15T02:45:58;7.20;1.20
48328;DHT22;34136;51.022;7.082;2023-01-15T02:48:50;7.20;1.80
48328;DHT22;34136;51.022;7.082;2023-01-15T02:51:44;7.20;1.90
48328;DHT22;34136;51.022;7.082;2023-01-15T02:54:40;7.20;2.10
48328;DHT22;34136;51.022;7.082;2023-01-15T02:57:30;7.20;1.00
48328;DHT22;34136;51.022;7.082;2023-01-15T03:00:19;7.10;1.00
48328;DHT22;34136;51.022;7.082;2023-01-15T03:03:40;7.10;1.00
48328;DHT22;34136;51.022;7.082;2023-01-15T03:07:07;7.10;1.50
48328;DHT22;34136;51.022;7.082;2023-01-15T03:09:57;7.00;1.00
48328;DHT22;34136;51.022;7.082;2023-01-15T03:13:29;7.00;1.00
48328;DHT22;34136;51.022;7.082;2023-01-15T03:16:37;7.00;1.30
48328;DHT22;34136;51.022;7.082;2023-01-15T03:19:48;7.10;2.10
48328;DHT22;34136;51.022;7.082;2023-01-15T03:22:43;7.00;1.00
48328;DHT22;34136;51.022;7.082;2023-01-15T03:25:36;7.00;2.30
48328;DHT22;34136;51.022;7.082;2023-01-15T03:28:27;7.00;2.20
48328;DHT22;34136;51.022;7.082;2023-01-15T03:31:16;7.00;1.00
48328;DHT22;34136;51.022;7.082;2023-01-15T03:34:03;7.00;1.90
48328;DHT22;34136;51.022;7.082;2023-01-15T03:36:50;7.00;1.50
48328;DHT22;34136;51.022;7.082;2023-01-15T03:39:38;7.10;1.40
48328;DHT22;34136;51.022;7.082;2023-01-15T03:42:53;7.10;1.40
48328;DHT22;34136;51.022;7.082;2023-01-15T03:45:44;7.10;1.40
48328;DHT22;34136;51.022;7.082;2023-01-15T03:52:31;7.00;1.00
48328;DHT22;34136;51.022;7.082;2023-01-15T03:55:26;7.00;1.00
48328;DHT22;34136;51.022;7.082;2023-01-15T03:58:29;7.00;1.00
48328;DHT22;34136;51.022;7.082;2023-01-15T04:01:25;7.10;1.00
48328;DHT22;34136;51.022;7.082;2023-01-15T04:04:13;7.00;1.00
48328;DHT22;34136;51.022;7.082;2023-01-15T04:07:01;7.00;1.00
48328;DHT22;34136;51.022;7.082;2023-01-15T04:09:48;7.00;1.00
48328;DHT22;34136;51.022;7.082;2023-01-15T04:12:36;7.00;1.00
48328;DHT22;34136;51.022;7.082;2023-01-15T04:15:26;7.00;1.00
48328;DHT22;34136;51.022;7.082;2023-01-15T04:18:13;7.00;1.00
48328;DHT22;34136;51.022;7.082;2023-01-15T04:21:00;7.00;1.00
48328;DHT22;34136;51.022;7.082;2023-01-15T04:23:48;7.10;1.00
48328;DHT22;34136;51.022;7.082;2023-01-15T04:26:34;7.00;1.00
48328;DHT22;34136;51.022;7.082;2023-01-15T04:29:21;7.00;1.00
48328;DHT22;34136;51.022;7.082;2023-01-15T04:32:07;7.00;1.00
48328;DHT22;34136;51.022;7.082;2023-01-15T04:34:53;7.00;1.00
48328;DHT22;34136;51.022;7.082;2023-01-15T04:37:39;7.00;1.00
48328;DHT22;34136;51.022;7.082;2023-01-15T04:40:27;7.00;1.00
48328;DHT22;34136;51.022;7.082;2023-01-15T04:43:13;7.00;1.00
48328;DHT22;34136;51.022;7.082;2023-01-15T04:46:00;7.00;1.00
48328;DHT22;34136;51.022;7.082;2023-01-15T04:48:46;7.00;1.00
48328;DHT22;34136;51.022;7.082;2023-01-15T04:51:32;6.90;1.00
48328;DHT22;34136;51.022;7.082;2023-01-15T04:54:19;7.00;1.00
48328;DHT22;34136;51.022;7.082;2023-01-15T04:57:05;7.00;1.00
48328;DHT22;34136;51.022;7.082;2023-01-15T04:59:52;7.00;1.00
48328;DHT22;34136;51.022;7.082;2023-01-15T05:02:38;6.90;1.00
48328;DHT22;34136;51.022;7.082;2023-01-15T05:05:24;7.00;1.00
48328;DHT22;34136;51.022;7.082;2023-01-15T05:08:10;7.00;1.00
48328;DHT22;34136;51.022;7.082;2023-01-15T05:11:01;7.00;1.00
48328;DHT22;34136;51.022;7.082;2023-01-15T05:13:47;7.00;1.00
48328;DHT22;34136;51.022;7.082;2023-01-15T05:16:33;6.90;1.00
48328;DHT22;34136;51.022;7.082;2023-01-15T05:19:19;7.00;1.00
48328;DHT22;34136;51.022;7.082;2023-01-15T05:22:05;7.00;1.00
48328;DHT22;34136;51.022;7.082;2023-01-15T05:24:52;7.00;1.00
48328;DHT22;34136;51.022;7.082;2023-01-15T05:27:38;7.00;1.00
48328;DHT22;34136;51.022;7.082;2023-01-15T05:30:24;7.10;1.00
48328;DHT22;34136;51.022;7.082;2023-01-15T05:33:10;7.00;1.00
48328;DHT22;34136;51.022;7.082;2023-01-15T05:36:01;7.00;1.00
48328;DHT22;34136;51.022;7.082;2023-01-15T05:38:47;6.90;1.00
48328;DHT22;34136;51.022;7.082;2023-01-15T05:41:34;6.90;1.00
48328;DHT22;34136;51.022;7.082;2023-01-15T05:44:25;6.90;1.00
48328;DHT22;34136;51.022;7.082;2023-01-15T05:47:11;6.90;1.00
48328;DHT22;34136;51.022;7.082;2023-01-15T05:49:58;7.00;1.00
48328;DHT22;34136;51.022;7.082;2023-01-15T05:52:44;7.00;1.00
48328;DHT22;34136;51.022;7.082;2023-01-15T05:55:30;7.00;1.00
48328;DHT22;34136;51.022;7.082;2023-01-15T05:58:16;7.00;1.00
48328;DHT22;34136;51.022;7.082;2023-01-15T06:01:07;7.00;1.00
48328;DHT22;34136;51.022;7.082;2023-01-15T06:03:57;7.00;1.00
48328;DHT22;34136;51.022;7.082;2023-01-15T06:06:43;7.00;1.00
48328;DHT22;34136;51.022;7.082;2023-01-15T06:09:29;7.00;1.00
48328;DHT22;34136;51.022;7.082;2023-01-15T06:12:15;7.00;1.00
48328;DHT22;34136;51.022;7.082;2023-01-15T06:15:01;6.90;1.00
48328;DHT22;34136;51.022;7.082;2023-01-15T06:17:49;7.00;1.00
48328;DHT22;34136;51.022;7.082;2023-01-15T06:20:38;7.00;1.00
48328;DHT22;34136;51.022;7.082;2023-01-15T06:23:25;7.00;1.00
48328;DHT22;34136;51.022;7.082;2023-01-15T06:26:16;7.00;1.00
48328;DHT22;34136;51.022;7.082;2023-01-15T06:29:02;6.90;1.00
48328;DHT22;34136;51.022;7.082;2023-01-15T06:31:49;7.00;1.00
48328;DHT22;34136;51.022;7.082;2023-01-15T06:34:35;6.90;1.00
48328;DHT22;34136;51.022;7.082;2023-01-15T06:37:21;6.90;1.00
48328;DHT22;34136;51.022;7.082;2023-01-15T06:40:08;6.90;1.00
48328;DHT22;34136;51.022;7.082;2023-01-15T06:42:57;6.90;1.00
48328;DHT22;34136;51.022;7.082;2023-01-15T06:45:44;6.90;1.00
48328;DHT22;34136;51.022;7.082;2023-01-15T06:48:30;6.80;1.00
48328;DHT22;34136;51.022;7.082;2023-01-15T06:51:16;6.80;1.00
48328;DHT22;34136;51.022;7.082;2023-01-15T06:54:02;6.80;1.00
48328;DHT22;34136;51.022;7.082;2023-01-15T06:56:49;6.80;1.00
48328;DHT22;34136;51.022;7.082;2023-01-15T06:59:35;6.80;1.00
48328;DHT22;34136;51.022;7.082;2023-01-15T07:02:21;6.80;1.00
48328;DHT22;34136;51.022;7.082;2023-01-15T07:05:08;6.70;1.00
48328;DHT22;34136;51.022;7.082;2023-01-15T07:07:56;6.70;1.00
48328;DHT22;34136;51.022;7.082;2023-01-15T07:10:42;6.70;1.00
48328;DHT22;34136;51.022;7.082;2023-01-15T07:13:28;6.70;1.00
48328;DHT22;34136;51.022;7.082;2023-01-15T07:16:14;6.70;1.00
48328;DHT22;34136;51.022;7.082;2023-01-15T07:19:01;6.70;1.00
48328;DHT22;34136;51.022;7.082;2023-01-15T07:21:48;6.60;1.00
48328;DHT22;34136;51.022;7.082;2023-01-15T07:24:34;6.70;1.00
48328;DHT22;34136;51.022;7.082;2023-01-15T07:27:21;6.70;1.00
48328;DHT22;34136;51.022;7.082;2023-01-15T07:30:08;6.60;1.00
48328;DHT22;34136;51.022;7.082;2023-01-15T07:32:55;6.50;1.00
48328;DHT22;34136;51.022;7.082;2023-01-15T07:35:42;6.50;1.00
48328;DHT22;34136;51.022;7.082;2023-01-15T07:38:28;6.60;1.00
48328;DHT22;34136;51.022;7.082;2023-01-15T07:41:14;6.60;1.00
48328;DHT22;34136;51.022;7.082;2023-01-15T07:44:01;6.50;1.00
48328;DHT22;34136;51.022;7.082;2023-01-15T07:46:47;6.50;1.00
48328;DHT22;34136;51.022;7.082;2023-01-15T07:49:33;6.50;1.00
48328;DHT22;34136;51.022;7.082;2023-01-15T07:52:21;6.50;1.00
48328;DHT22;34136;51.022;7.082;2023-01-15T07:55:07;6.40;1.00
48328;DHT22;34136;51.022;7.082;2023-01-15T07:57:54;6.40;1.00
48328;DHT22;34136;51.022;7.082;2023-01-15T08:00:40;6.40;1.00
48328;DHT22;34136;51.022;7.082;2023-01-15T08:03:26;6.40;1.00
48328;DHT22;34136;51.022;7.082;2023-01-15T08:06:12;6.30;1.00
48328;DHT22;34136;51.022;7.082;2023-01-15T08:08:58;6.30;1.00
48328;DHT22;34136;51.022;7.082;2023-01-15T08:11:45;6.40;1.00
48328;DHT22;34136;51.022;7.082;2023-01-15T08:14:31;6.30;1.00
48328;DHT22;34136;51.022;7.082;2023-01-15T08:17:17;6.30;1.00
48328;DHT22;34136;51.022;7.082;2023-01-15T08:20:05;6.30;1.00
48328;DHT22;34136;51.022;7.082;2023-01-15T08:22:51;6.30;1.00
48328;DHT22;34136;51.022;7.082;2023-01-15T08:25:38;6.40;1.00
48328;DHT22;34136;51.022;7.082;2023-01-15T08:28:24;6.40;1.00
48328;DHT22;34136;51.022;7.082;2023-01-15T08:31:11;6.40;1.00
48328;DHT22;34136;51.022;7.082;2023-01-15T08:33:57;6.30;1.00
48328;DHT22;34136;51.022;7.082;2023-01-15T08:36:44;6.30;1.00
48328;DHT22;34136;51.022;7.082;2023-01-15T08:39:30;6.30;1.00
48328;DHT22;34136;51.022;7.082;2023-01-15T08:42:16;6.30;1.00
48328;DHT22;34136;51.022;7.082;2023-01-15T08:45:02;6.30;1.00
48328;DHT22;34136;51.022;7.082;2023-01-15T08:47:49;6.30;1.00
48328;DHT22;34136;51.022;7.082;2023-01-15T08:50:39;6.10;1.00
48328;DHT22;34136;51.022;7.082;2023-01-15T08:53:25;6.10;1.00
48328;DHT22;34136;51.022;7.082;2023-01-15T08:56:16;6.10;1.00
48328;DHT22;34136;51.022;7.082;2023-01-15T08:59:04;6.00;1.00
48328;DHT22;34136;51.022;7.082;2023-01-15T09:01:51;6.10;1.00
48328;DHT22;34136;51.022;7.082;2023-01-15T09:04:38;6.00;1.00
48328;DHT22;34136;51.022;7.082;2023-01-15T09:07:24;6.00;1.00
48328;DHT22;34136;51.022;7.082;2023-01-15T09:10:10;6.00;1.00
48328;DHT22;34136;51.022;7.082;2023-01-15T09:13:01;6.10;1.00
48328;DHT22;34136;51.022;7.082;2023-01-15T09:15:47;6.00;1.00
48328;DHT22;34136;51.022;7.082;2023-01-15T09:18:35;5.90;1.00
48328;DHT22;34136;51.022;7.082;2023-01-15T09:21:22;6.00;1.00
48328;DHT22;34136;51.022;7.082;2023-01-15T09:24:08;6.00;1.00
48328;DHT22;34136;51.022;7.082;2023-01-15T09:26:54;6.10;1.00
48328;DHT22;34136;51.022;7.082;2023-01-15T09:29:40;6.10;1.00
48328;DHT22;34136;51.022;7.082;2023-01-15T09:32:26;6.10;1.00
48328;DHT22;34136;51.022;7.082;2023-01-15T09:35:13;6.00;1.00
48328;DHT22;34136;51.022;7.082;2023-01-15T09:37:59;6.00;1.00
48328;DHT22;34136;51.022;7.082;2023-01-15T09:40:58;6.00;1.00
48328;DHT22;34136;51.022;7.082;2023-01-15T09:43:55;6.00;1.00
48328;DHT22;34136;51.022;7.082;2023-01-15T09:47:00;6.00;1.00
48328;DHT22;34136;51.022;7.082;2023-01-15T09:56:37;6.20;1.00
48328;DHT22;34136;51.022;7.082;2023-01-15T09:59:34;6.30;1.00
48328;DHT22;34136;51.022;7.082;2023-01-15T10:02:34;6.50;1.00
48328;DHT22;34136;51.022;7.082;2023-01-15T10:05:46;6.50;1.00
48328;DHT22;34136;51.022;7.082;2023-01-15T10:08:43;6.50;1.00
48328;DHT22;34136;51.022;7.082;2023-01-15T10:11:50;6.60;1.00
48328;DHT22;34136;51.022;7.082;2023-01-15T10:17:44;6.80;1.00
48328;DHT22;34136;51.022;7.082;2023-01-15T10:21:00;6.90;1.00
48328;DHT22;34136;51.022;7.082;2023-01-15T10:24:05;7.00;1.00
48328;DHT22;34136;51.022;7.082;2023-01-15T10:26:55;7.10;1.00
48328;DHT22;34136;51.022;7.082;2023-01-15T10:29:51;7.20;1.00
48328;DHT22;34136;51.022;7.082;2023-01-15T10:32:51;7.30;1.00
48328;DHT22;34136;51.022;7.082;2023-01-15T10:41:41;7.30;1.00
48328;DHT22;34136;51.022;7.082;2023-01-15T10:47:30;7.50;1.00
48328;DHT22;34136;51.022;7.082;2023-01-15T10:50:22;7.60;1.00
48328;DHT22;34136;51.022;7.082;2023-01-15T10:53:31;7.60;1.00
48328;DHT22;34136;51.022;7.082;2023-01-15T10:59:24;7.70;1.00
48328;DHT22;34136;51.022;7.082;2023-01-15T11:05:27;7.70;1.00
48328;DHT22;34136;51.022;7.082;2023-01-15T11:08:33;7.80;1.00
48328;DHT22;34136;51.022;7.082;2023-01-15T11:14:16;7.90;1.00
48328;DHT22;34136;51.022;7.082;2023-01-15T11:17:03;7.90;1.00
48328;DHT22;34136;51.022;7.082;2023-01-15T11:19:56;7.80;1.00
48328;DHT22;34136;51.022;7.082;2023-01-15T11:22:42;7.80;1.00
48328;DHT22;34136;51.022;7.082;2023-01-15T11:25:30;7.70;1.00
48328;DHT22;34136;51.022;7.082;2023-01-15T11:28:17;7.70;1.00
48328;DHT22;34136;51.022;7.082;2023-01-15T11:31:15;7.70;1.00
48328;DHT22;34136;51.022;7.082;2023-01-15T11:34:04;7.70;1.00
48328;DHT22;34136;51.022;7.082;2023-01-15T11:37:04;7.80;1.00
48328;DHT22;34136;51.022;7.082;2023-01-15T11:39:55;7.70;1.00
48328;DHT22;34136;51.022;7.082;2023-01-15T11:42:46;7.80;1.00
48328;DHT22;34136;51.022;7.082;2023-01-15T11:45:33;7.80;1.00
48328;DHT22;34136;51.022;7.082;2023-01-15T11:48:23;7.80;1.00
48328;DHT22;34136;51.022;7.082;2023-01-15T11:51:12;7.80;1.00
48328;DHT22;34136;51.022;7.082;2023-01-15T11:54:02;7.80;1.00
48328;DHT22;34136;51.022;7.082;2023-01-15T11:56:49;7.90;1.00
48328;DHT22;34136;51.022;7.082;2023-01-15T11:59:36;7.90;1.00
48328;DHT22;34136;51.022;7.082;2023-01-15T12:02:39;7.90;1.00
48328;DHT22;34136;51.022;7.082;2023-01-15T12:05:28;7.80;1.00
48328;DHT22;34136;51.022;7.082;2023-01-15T12:08:36;7.80;1.00
48328;DHT22;34136;51.022;7.082;2023-01-15T12:18:57;7.70;1.00
48328;DHT22;34136;51.022;7.082;2023-01-15T12:30:35;7.90;1.00
48328;DHT22;34136;51.022;7.082;2023-01-15T12:42:45;8.20;1.00
48328;DHT22;34136;51.022;7.082;2023-01-15T12:45:39;8.20;1.00
48328;DHT22;34136;51.022;7.082;2023-01-15T12:48:36;8.20;1.00
48328;DHT22;34136;51.022;7.082;2023-01-15T12:55:12;7.90;1.00
48328;DHT22;34136;51.022;7.082;2023-01-15T12:58:01;8.00;1.00
48328;DHT22;34136;51.022;7.082;2023-01-15T13:00:50;8.00;1.00
48328;DHT22;34136;51.022;7.082;2023-01-15T13:04:12;8.00;1.00
48328;DHT22;34136;51.022;7.082;2023-01-15T13:07:26;8.10;1.00
48328;DHT22;34136;51.022;7.082;2023-01-15T13:10:22;8.10;1.00
48328;DHT22;34136;51.022;7.082;2023-01-15T13:13:24;8.20;1.00
48328;DHT22;34136;51.022;7.082;2023-01-15T13:16:21;8.10;1.00
48328;DHT22;34136;51.022;7.082;2023-01-15T13:19:36;8.10;1.00
48328;DHT22;34136;51.022;7.082;2023-01-15T13:22:27;8.00;1.00
48328;DHT22;34136;51.022;7.082;2023-01-15T13:25:39;8.00;1.00
48328;DHT22;34136;51.022;7.082;2023-01-15T13:28:39;8.10;1.00
48328;DHT22;34136;51.022;7.082;2023-01-15T13:32:00;8.20;1.00
48328;DHT22;34136;51.022;7.082;2023-01-15T13:34:59;8.20;1.00
48328;DHT22;34136;51.022;7.082;2023-01-15T13:37:52;8.20;1.00
48328;DHT22;34136;51.022;7.082;2023-01-15T13:40:59;8.30;1.00
48328;DHT22;34136;51.022;7.082;2023-01-15T13:43:45;8.30;1.00
48328;DHT22;34136;51.022;7.082;2023-01-15T13:46:32;8.30;1.00
48328;DHT22;34136;51.022;7.082;2023-01-15T13:49:31;8.40;1.00
48328;DHT22;34136;51.022;7.082;2023-01-15T13:52:26;8.40;1.00
48328;DHT22;34136;51.022;7.082;2023-01-15T13:55:28;8.40;1.00
48328;DHT22;34136;51.022;7.082;2023-01-15T13:58:19;8.40;1.00
48328;DHT22;34136;51.022;7.082;2023-01-15T14:04:13;8.20;1.00
48328;DHT22;34136;51.022;7.082;2023-01-15T14:06:59;8.20;1.00
48328;DHT22;34136;51.022;7.082;2023-01-15T14:09:45;8.20;1.00
48328;DHT22;34136;51.022;7.082;2023-01-15T14:18:54;8.10;1.00
48328;DHT22;34136;51.022;7.082;2023-01-15T14:21:43;8.10;1.00
48328;DHT22;34136;51.022;7.082;2023-01-15T14:24:54;8.10;1.00
48328;DHT22;34136;51.022;7.082;2023-01-15T14:36:38;8.00;1.00
48328;DHT22;34136;51.022;7.082;2023-01-15T14:39:29;8.00;1.00
48328;DHT22;34136;51.022;7.082;2023-01-15T14:48:00;7.90;1.00
48328;DHT22;34136;51.022;7.082;2023-01-15T14:50:47;7.90;1.00
48328;DHT22;34136;51.022;7.082;2023-01-15T14:53:43;7.90;1.00
48328;DHT22;34136;51.022;7.082;2023-01-15T14:56:34;7.90;1.00
48328;DHT22;34136;51.022;7.082;2023-01-15T15:02:44;7.90;1.00
48328;DHT22;34136;51.022;7.082;2023-01-15T15:05:32;8.00;1.00
48328;DHT22;34136;51.022;7.082;2023-01-15T15:08:20;7.90;1.00
48328;DHT22;34136;51.022;7.082;2023-01-15T15:11:15;7.90;1.00
48328;DHT22;34136;51.022;7.082;2023-01-15T15:14:05;7.90;1.00
48328;DHT22;34136;51.022;7.082;2023-01-15T15:16:52;7.80;1.00
48328;DHT22;34136;51.022;7.082;2023-01-15T15:19:44;7.90;1.00
48328;DHT22;34136;51.022;7.082;2023-01-15T15:22:35;7.80;1.00
48328;DHT22;34136;51.022;7.082;2023-01-15T15:25:26;7.80;1.00
48328;DHT22;34136;51.022;7.082;2023-01-15T15:28:15;7.90;1.00
48328;DHT22;34136;51.022;7.082;2023-01-15T15:31:02;7.80;1.00
48328;DHT22;34136;51.022;7.082;2023-01-15T15:33:48;7.80;1.00
48328;DHT22;34136;51.022;7.082;2023-01-15T15:36:36;7.80;1.00
48328;DHT22;34136;51.022;7.082;2023-01-15T15:39:44;7.80;1.00
48328;DHT22;34136;51.022;7.082;2023-01-15T15:42:33;7.90;1.00
48328;DHT22;34136;51.022;7.082;2023-01-15T15:45:29;7.80;1.00
48328;DHT22;34136;51.022;7.082;2023-01-15T15:48:29;7.80;1.00
48328;DHT22;34136;51.022;7.082;2023-01-15T15:51:31;7.80;1.00
48328;DHT22;34136;51.022;7.082;2023-01-15T15:54:23;7.80;1.00
48328;DHT22;34136;51.022;7.082;2023-01-15T15:57:16;7.70;1.00
48328;DHT22;34136;51.022;7.082;2023-01-15T16:00:04;7.70;1.00
48328;DHT22;34136;51.022;7.082;2023-01-15T16:02:50;7.70;1.00
48328;DHT22;34136;51.022;7.082;2023-01-15T16:05:37;7.70;1.00
48328;DHT22;34136;51.022;7.082;2023-01-15T16:08:23;7.70;1.00
48328;DHT22;34136;51.022;7.082;2023-01-15T16:11:11;7.70;1.00
48328;DHT22;34136;51.022;7.082;2023-01-15T16:13:59;7.70;1.00
48328;DHT22;34136;51.022;7.082;2023-01-15T16:16:49;7.60;1.00
48328;DHT22;34136;51.022;7.082;2023-01-15T16:19:35;7.60;1.00
48328;DHT22;34136;51.022;7.082;2023-01-15T16:22:22;7.60;1.00
48328;DHT22;34136;51.022;7.082;2023-01-15T16:25:25;7.60;1.00
48328;DHT22;34136;51.022;7.082;2023-01-15T16:28:26;7.60;1.00
48328;DHT22;34136;51.022;7.082;2023-01-15T16:31:14;7.60;1.00
48328;DHT22;34136;51.022;7.082;2023-01-15T16:34:03;7.60;1.00
48328;DHT22;34136;51.022;7.082;2023-01-15T16:36:50;7.70;1.00
48328;DHT22;34136;51.022;7.082;2023-01-15T16:39:43;7.80;1.00
48328;DHT22;34136;51.022;7.082;2023-01-15T16:42:34;7.70;1.00
48328;DHT22;34136;51.022;7.082;2023-01-15T16:45:23;7.70;1.00
48328;DHT22;34136;51.022;7.082;2023-01-15T16:48:24;7.60;1.00
48328;DHT22;34136;51.022;7.082;2023-01-15T16:57:29;7.60;1.00
48328;DHT22;34136;51.022;7.082;2023-01-15T17:00:28;7.70;1.00
48328;DHT22;34136;51.022;7.082;2023-01-15T17:03:15;7.70;1.00
48328;DHT22;34136;51.022;7.082;2023-01-15T17:06:11;7.60;1.00
48328;DHT22;34136;51.022;7.082;2023-01-15T17:09:01;7.60;1.00
48328;DHT22;34136;51.022;7.082;2023-01-15T17:11:50;7.60;1.00
48328;DHT22;34136;51.022;7.082;2023-01-15T17:14:37;7.60;1.00
48328;DHT22;34136;51.022;7.082;2023-01-15T17:17:26;7.60;1.00
48328;DHT22;34136;51.022;7.082;2023-01-15T17:20:15;7.60;1.00
48328;DHT22;34136;51.022;7.082;2023-01-15T17:23:01;7.70;1.00
48328;DHT22;34136;51.022;7.082;2023-01-15T17:25:47;7.70;1.00
48328;DHT22;34136;51.022;7.082;2023-01-15T17:28:33;7.70;1.00
48328;DHT22;34136;51.022;7.082;2023-01-15T17:31:31;7.60;1.00
48328;DHT22;34136;51.022;7.082;2023-01-15T17:34:17;7.60;1.00
48328;DHT22;34136;51.022;7.082;2023-01-15T17:37:04;7.60;1.00
48328;DHT22;34136;51.022;7.082;2023-01-15T17:39:50;7.60;1.00
48328;DHT22;34136;51.022;7.082;2023-01-15T17:42:36;7.60;1.00
48328;DHT22;34136;51.022;7.082;2023-01-15T17:45:25;7.50;1.00
48328;DHT22;34136;51.022;7.082;2023-01-15T17:48:12;7.60;1.00
48328;DHT22;34136;51.022;7.082;2023-01-15T17:51:03;7.50;1.00
48328;DHT22;34136;51.022;7.082;2023-01-15T17:53:49;7.50;1.00
48328;DHT22;34136;51.022;7.082;2023-01-15T17:56:35;7.30;1.00
48328;DHT22;34136;51.022;7.082;2023-01-15T17:59:22;7.00;1.00
48328;DHT22;34136;51.022;7.082;2023-01-15T18:02:12;6.80;1.00
48328;DHT22;34136;51.022;7.082;2023-01-15T18:04:59;6.80;1.00
48328;DHT22;34136;51.022;7.082;2023-01-15T18:07:46;6.90;1.00
48328;DHT22;34136;51.022;7.082;2023-01-15T18:10:33;6.90;1.00
48328;DHT22;34136;51.022;7.082;2023-01-15T18:13:19;7.00;1.00
48328;DHT22;34136;51.022;7.082;2023-01-15T18:16:05;6.90;1.00
48328;DHT22;34136;51.022;7.082;2023-01-15T18:18:52;6.90;1.00
48328;DHT22;34136;51.022;7.082;2023-01-15T18:21:39;6.80;1.00
48328;DHT22;34136;51.022;7.082;2023-01-15T18:24:26;6.80;1.00
48328;DHT22;34136;51.022;7.082;2023-01-15T18:27:12;6.90;1.00
48328;DHT22;34136;51.022;7.082;2023-01-15T18:29:59;6.90;1.00
48328;DHT22;34136;51.022;7.082;2023-01-15T18:32:45;6.90;1.00
48328;DHT22;34136;51.022;7.082;2023-01-15T18:35:31;7.00;1.00
48328;DHT22;34136;51.022;7.082;2023-01-15T18:38:18;7.00;1.00
48328;DHT22;34136;51.022;7.082;2023-01-15T18:41:09;7.00;1.00
48328;DHT22;34136;51.022;7.082;2023-01-15T18:43:56;7.00;1.00
48328;DHT22;34136;51.022;7.082;2023-01-15T18:46:43;7.00;1.00
48328;DHT22;34136;51.022;7.082;2023-01-15T18:49:30;7.00;1.00
48328;DHT22;34136;51.022;7.082;2023-01-15T18:52:16;7.10;1.00
48328;DHT22;34136;51.022;7.082;2023-01-15T18:55:03;7.20;1.00
48328;DHT22;34136;51.022;7.082;2023-01-15T18:57:49;7.10;1.00
48328;DHT22;34136;51.022;7.082;2023-01-15T19:00:36;7.10;1.00
48328;DHT22;34136;51.022;7.082;2023-01-15T19:03:22;7.10;1.00
48328;DHT22;34136;51.022;7.082;2023-01-15T19:06:09;7.20;1.00
48328;DHT22;34136;51.022;7.082;2023-01-15T19:08:55;7.20;1.00
48328;DHT22;34136;51.022;7.082;2023-01-15T19:11:43;7.20;1.00
48328;DHT22;34136;51.022;7.082;2023-01-15T19:14:30;7.20;1.00
48328;DHT22;34136;51.022;7.082;2023-01-15T19:17:20;7.20;1.00
48328;DHT22;34136;51.022;7.082;2023-01-15T19:20:07;7.10;1.00
48328;DHT22;34136;51.022;7.082;2023-01-15T19:22:54;7.10;1.00
48328;DHT22;34136;51.022;7.082;2023-01-15T19:25:43;7.00;1.00
48328;DHT22;34136;51.022;7.082;2023-01-15T19:28:29;7.00;1.00
48328;DHT22;34136;51.022;7.082;2023-01-15T19:31:15;7.10;1.00
48328;DHT22;34136;51.022;7.082;2023-01-15T19:34:02;7.00;1.00
48328;DHT22;34136;51.022;7.082;2023-01-15T19:36:48;7.10;1.00
48328;DHT22;34136;51.022;7.082;2023-01-15T19:39:35;7.00;1.00
48328;DHT22;34136;51.022;7.082;2023-01-15T19:42:21;7.00;1.00
48328;DHT22;34136;51.022;7.082;2023-01-15T19:45:09;7.00;1.00
48328;DHT22;34136;51.022;7.082;2023-01-15T19:47:56;6.90;1.00
48328;DHT22;34136;51.022;7.082;2023-01-15T19:50:44;6.80;1.00
48328;DHT22;34136;51.022;7.082;2023-01-15T19:53:31;6.80;1.00
48328;DHT22;34136;51.022;7.082;2023-01-15T19:56:17;6.70;1.00
48328;DHT22;34136;51.022;7.082;2023-01-15T19:59:04;6.70;1.00
48328;DHT22;34136;51.022;7.082;2023-01-15T20:01:50;6.70;1.00
48328;DHT22;34136;51.022;7.082;2023-01-15T20:04:36;6.60;1.00
48328;DHT22;34136;51.022;7.082;2023-01-15T20:07:23;6.70;1.00
48328;DHT22;34136;51.022;7.082;2023-01-15T20:10:15;6.70;1.00
48328;DHT22;34136;51.022;7.082;2023-01-15T20:13:01;6.60;1.00
48328;DHT22;34136;51.022;7.082;2023-01-15T20:15:47;6.70;1.00
48328;DHT22;34136;51.022;7.082;2023-01-15T20:18:33;6.60;1.00